KOLS

Details ICAO KOLS (OLS)
Name NOGALES INTL
Region United States
Timezone America/Phoenix (UTC-7.0)
Plans Departing 6
Arriving 2
Stats Elevation 3,955 ft / 1,205 m (AMSL)
Location 31.417718° -110.847894°
Runways 1
Magnetic Variation 9.660° E
Sunrise 2017-12-12 14:14:45 UTC / 2017-12-12 07:14:45 Local
Sunset 2017-12-13 00:22:38 UTC / 2017-12-12 17:22:38 Local
Advertisement - Login to hide

Runways

ID Width Length Bearing (true) Bearing (mag) Surface Threshold Offset Overrun Length
03 90 ft / 27 m 7,201 ft / 2,195 m 46.17° 36.51° Asphalt 0 ft / 0 m 0 ft / 0 m
21 90 ft / 27 m 7,201 ft / 2,195 m 226.18° 216.52° Asphalt 910 ft / 277 m 0 ft / 0 m

Map

Weather


0- 5 10 15 20 25 30 35+ Temperature / ° C

Clouds and Precipitation
Forecast for 2017-12-13 06:00 UTC. Updated 28 minutes ago

Ground ~20,000 ft ~40,000 ft Winds

METAR

KOLS 130254Z AUTO 00000KT 10SM CLR 14/M09 A3016 RMK AO2 SLP183 T01391094 53008

TAF

TAF KOLS 122320Z 1300/1324 13012KT P6SM SCT150 SCT250 FM130600 14010KT P6SM FEW150 FM131600 VRB03KT P6SM SKC

Frequencies

Recorded 121.12 MHz ASOS
Approach 125.10 MHz TUCSON APP DEP
Unicom 122.80 MHz CTAF/UNICOM
Warning: Do not use this data for real-world aviation or navigation. No guarantee of current accuracy is given.